Time;durP1;ratioP1;P1;durP2;ratioP2;P2;SDS_P1;SDS_P2;PMS_P1;PMS_P2;Temp;Humidity;BMP_temperature;BMP_pressure;BME280_temperature;BME280_humidity;BME280_pressure;Samples;Min_cycle;Max_cycle;Signal;HPM_P1;HPM_P2
2021/12/23 00:01:54;;;;;;;8.75;6.60;;;;;;;;;;5077965;28;20123;-75
2021/12/23 00:04:20;;;;;;;12.57;7.93;;;;;;;;;;5073762;28;20500;-75
2021/12/23 00:06:46;;;;;;;13.68;10.60;;;;;;;;;;5077323;28;20020;-75
2021/12/23 00:09:12;;;;;;;12.05;9.20;;;;;;;;;;5081797;28;20019;-75
2021/12/23 00:11:39;;;;;;;15.30;12.73;;;;;;;;;;5080982;28;20652;-75
2021/12/23 00:14:08;;;;;;;16.13;9.93;;;;;;;;;;5077709;28;20070;-75
2021/12/23 00:16:43;;;;;;;9.43;7.63;;;;;;;;;;5066693;28;20392;-75
2021/12/23 00:23:20;;;;;;;9.02;7.05;;;;;;;;;;5072258;28;20532;-75
2021/12/23 00:24:45;;;;;;;4.15;2.80;;;;;;;;;;5069392;28;20047;-75
2021/12/23 00:27:12;;;;;;;3.22;2.10;;;;;;;;;;5073101;28;20020;-75
2021/12/23 00:29:39;;;;;;;3.35;2.58;;;;;;;;;;5074603;28;20087;-76
2021/12/23 00:32:08;;;;;;;2.60;2.10;;;;;;;;;;5076612;28;20031;-75
2021/12/23 00:34:34;;;;;;;3.47;1.95;;;;;;;;;;5069640;28;20552;-75
2021/12/23 00:37:02;;;;;;;3.22;2.10;;;;;;;;;;5067390;28;20099;-75
2021/12/23 00:39:29;;;;;;;4.30;1.90;;;;;;;;;;5069590;28;20086;-75
2021/12/23 00:42:05;;;;;;;2.65;1.90;;;;;;;;;;5073062;28;20031;-75
2021/12/23 00:44:31;;;;;;;3.20;1.92;;;;;;;;;;5084104;28;20070;-75
2021/12/23 00:46:57;;;;;;;2.63;1.90;;;;;;;;;;5072833;28;20123;-75
2021/12/23 00:49:23;;;;;;;5.72;2.58;;;;;;;;;;5072351;28;20485;-75
2021/12/23 00:51:50;;;;;;;3.90;2.40;;;;;;;;;;5078042;28;20502;-76
2021/12/23 00:54:16;;;;;;;5.45;3.25;;;;;;;;;;5075974;28;20542;-76
2021/12/23 00:56:48;;;;;;;6.28;4.88;;;;;;;;;;5073971;28;20427;-75
2021/12/23 00:59:14;;;;;;;;;;;;;;;;;;5078641;28;20429;-75
2021/12/23 01:01:41;;;;;;;4.57;3.10;;;;;;;;;;5082933;28;19939;-75
2021/12/23 01:04:07;;;;;;;2.55;1.90;;;;;;;;;;5076528;28;20115;-75
2021/12/23 01:06:33;;;;;;;4.07;2.30;;;;;;;;;;5078751;28;20032;-76
2021/12/23 01:08:59;;;;;;;3.30;1.90;;;;;;;;;;5075912;28;20039;-75
2021/12/23 01:11:27;;;;;;;2.28;1.65;;;;;;;;;;5071710;28;20040;-76
2021/12/23 01:14:03;;;;;;;5.43;1.80;;;;;;;;;;5073567;28;20070;-75
2021/12/23 01:19:39;;;;;;;2.92;1.58;;;;;;;;;;5041626;28;20245;-75
2021/12/23 01:22:05;;;;;;;5.05;1.58;;;;;;;;;;5039436;28;20438;-76
2021/12/23 01:24:33;;;;;;;3.47;1.40;;;;;;;;;;5057411;28;20044;-75
2021/12/23 01:27:00;;;;;;;2.85;1.50;;;;;;;;;;5076276;28;20032;-76
2021/12/23 01:29:27;;;;;;;2.15;1.63;;;;;;;;;;5083938;28;20125;-75
2021/12/23 01:31:53;;;;;;;2.22;1.52;;;;;;;;;;5074120;28;20025;-75
2021/12/23 01:34:19;;;;;;;2.30;1.85;;;;;;;;;;5072889;28;20141;-75
2021/12/23 01:36:45;;;;;;;3.67;1.40;;;;;;;;;;5071766;28;20028;-75
2021/12/23 01:39:13;;;;;;;2.78;1.75;;;;;;;;;;5073738;28;20020;-75
2021/12/23 01:41:40;;;;;;;5.07;3.50;;;;;;;;;;5072717;28;20033;-75
2021/12/23 01:44:06;;;;;;;4.90;4.00;;;;;;;;;;5067264;28;20496;-75
2021/12/23 01:46:33;;;;;;;5.55;4.15;;;;;;;;;;5067842;28;20085;-75
2021/12/23 01:48:59;;;;;;;4.28;3.70;;;;;;;;;;5071608;28;20101;-75
2021/12/23 01:51:25;;;;;;;4.75;3.58;;;;;;;;;;5067395;28;20025;-75
2021/12/23 01:53:51;;;;;;;4.22;2.92;;;;;;;;;;5066684;28;20133;-76
2021/12/23 01:56:18;;;;;;;3.60;2.63;;;;;;;;;;5075414;28;20043;-75
2021/12/23 01:58:44;;;;;;;4.20;2.20;;;;;;;;;;5068897;28;20012;-75
2021/12/23 02:01:10;;;;;;;2.90;1.92;;;;;;;;;;5069428;28;20036;-75
2021/12/23 02:03:37;;;;;;;3.08;1.58;;;;;;;;;;5069935;28;20388;-75
2021/12/23 02:06:04;;;;;;;3.85;2.15;;;;;;;;;;5063516;28;20036;-75
2021/12/23 02:08:30;;;;;;;2.00;1.60;;;;;;;;;;5067622;28;20104;-75
2021/12/23 02:10:57;;;;;;;1.65;1.33;;;;;;;;;;5067651;28;20036;-76
2021/12/23 02:13:23;;;;;;;2.42;1.85;;;;;;;;;;5067104;28;20024;-75
2021/12/23 02:15:49;;;;;;;3.10;1.70;;;;;;;;;;5068854;28;20059;-75
2021/12/23 02:18:15;;;;;;;3.13;2.10;;;;;;;;;;5073434;28;20021;-75
2021/12/23 02:20:42;;;;;;;2.17;1.70;;;;;;;;;;5062471;28;20029;-75
2021/12/23 02:23:09;;;;;;;2.67;1.85;;;;;;;;;;5070524;28;20046;-75
2021/12/23 02:25:36;;;;;;;3.85;1.85;;;;;;;;;;5070059;28;20062;-75
2021/12/23 02:28:07;;;;;;;2.70;1.90;;;;;;;;;;5074607;28;20044;-75
2021/12/23 02:30:34;;;;;;;2.83;1.70;;;;;;;;;;5069128;28;20039;-75
2021/12/23 02:33:00;;;;;;;4.07;1.60;;;;;;;;;;5063184;28;20099;-75
2021/12/23 02:35:26;;;;;;;3.60;1.75;;;;;;;;;;5071414;28;20044;-75
2021/12/23 02:37:53;;;;;;;4.38;2.15;;;;;;;;;;5070161;28;20509;-75
2021/12/23 02:40:27;;;;;;;4.60;1.98;;;;;;;;;;5064850;28;20117;-75
2021/12/23 02:42:53;;;;;;;5.07;2.17;;;;;;;;;;5065487;28;20055;-75
2021/12/23 02:45:19;;;;;;;2.53;1.80;;;;;;;;;;5067063;28;20483;-75
2021/12/23 02:47:45;;;;;;;2.30;1.70;;;;;;;;;;5069518;28;20063;-75
2021/12/23 02:50:12;;;;;;;3.20;1.90;;;;;;;;;;5071330;28;20484;-75
2021/12/23 02:52:38;;;;;;;2.92;1.70;;;;;;;;;;5072709;28;20032;-75
2021/12/23 02:55:05;;;;;;;2.10;1.55;;;;;;;;;;5071242;28;20040;-74
2021/12/23 02:57:31;;;;;;;3.08;1.85;;;;;;;;;;5067714;28;20541;-75
2021/12/23 02:59:58;;;;;;;2.45;1.50;;;;;;;;;;5068914;28;20040;-75
2021/12/23 03:02:24;;;;;;;3.67;1.75;;;;;;;;;;5066961;28;20584;-76
2021/12/23 03:04:50;;;;;;;2.42;1.80;;;;;;;;;;5064549;28;20098;-76
2021/12/23 03:07:16;;;;;;;1.90;1.50;;;;;;;;;;5074461;28;20024;-75
2021/12/23 03:09:47;;;;;;;4.10;1.98;;;;;;;;;;5066518;28;20028;-75
2021/12/23 03:12:13;;;;;;;3.60;1.92;;;;;;;;;;5065200;28;20034;-75
2021/12/23 03:14:39;;;;;;;2.53;1.50;;;;;;;;;;5064528;28;20101;-75
2021/12/23 03:17:05;;;;;;;2.40;1.65;;;;;;;;;;5065349;28;20028;-75
2021/12/23 03:19:32;;;;;;;2.60;1.45;;;;;;;;;;5071862;28;20020;-76
2021/12/23 03:21:58;;;;;;;3.25;1.80;;;;;;;;;;5070649;28;20665;-75
2021/12/23 03:24:24;;;;;;;2.53;1.73;;;;;;;;;;5074432;28;20526;-75
2021/12/23 03:26:51;;;;;;;3.17;1.75;;;;;;;;;;5064698;28;20701;-75
2021/12/23 03:29:17;;;;;;;4.50;1.92;;;;;;;;;;5065159;28;20205;-75
2021/12/23 03:31:43;;;;;;;2.65;1.65;;;;;;;;;;5077455;28;20032;-75
2021/12/23 03:34:09;;;;;;;4.38;1.90;;;;;;;;;;5063709;28;20538;-75
2021/12/23 03:36:36;;;;;;;1.77;1.42;;;;;;;;;;5077646;28;20055;-75
2021/12/23 03:39:02;;;;;;;5.60;1.83;;;;;;;;;;5069551;28;20024;-75
2021/12/23 03:41:28;;;;;;;4.75;1.80;;;;;;;;;;5068534;28;20039;-75
2021/12/23 03:43:54;;;;;;;2.45;1.63;;;;;;;;;;5066799;28;20036;-75
2021/12/23 03:46:20;;;;;;;3.30;1.65;;;;;;;;;;5067984;28;20028;-75
2021/12/23 03:48:47;;;;;;;2.80;1.58;;;;;;;;;;5068842;28;20033;-75
2021/12/23 03:51:13;;;;;;;5.13;1.58;;;;;;;;;;5069450;28;20032;-75
2021/12/23 03:53:39;;;;;;;3.72;1.75;;;;;;;;;;5068316;28;20031;-75
2021/12/23 03:56:06;;;;;;;2.55;1.60;;;;;;;;;;5069211;28;20173;-75
2021/12/23 03:58:32;;;;;;;4.20;1.80;;;;;;;;;;5073414;28;20955;-75
2021/12/23 04:00:59;;;;;;;2.60;1.80;;;;;;;;;;5069450;28;20032;-76
2021/12/23 04:03:26;;;;;;;2.88;1.52;;;;;;;;;;5067194;28;20029;-75
2021/12/23 04:05:52;;;;;;;3.05;1.50;;;;;;;;;;5074545;28;20024;-75
2021/12/23 04:08:18;;;;;;;2.90;1.63;;;;;;;;;;5071861;28;20036;-75
2021/12/23 04:10:44;;;;;;;3.53;1.70;;;;;;;;;;5068485;28;20023;-75
2021/12/23 04:13:10;;;;;;;3.50;1.85;;;;;;;;;;5069058;28;20032;-75
2021/12/23 04:15:37;;;;;;;2.35;1.70;;;;;;;;;;5071446;28;20032;-74
2021/12/23 04:18:04;;;;;;;2.88;2.13;;;;;;;;;;5073108;28;20028;-75
2021/12/23 04:20:45;;;;;;;3.50;1.67;;;;;;;;;;5072189;28;20047;-75
2021/12/23 04:23:11;;;;;;;3.13;1.93;;;;;;;;;;5070781;28;20158;-75
2021/12/23 04:25:38;;;;;;;3.88;1.70;;;;;;;;;;5071414;28;20277;-75
2021/12/23 04:28:05;;;;;;;4.70;2.00;;;;;;;;;;5065754;28;20024;-75
2021/12/23 04:30:32;;;;;;;2.28;1.90;;;;;;;;;;5067066;28;20043;-75
2021/12/23 04:32:58;;;;;;;2.92;1.75;;;;;;;;;;5071696;28;20053;-75
2021/12/23 04:35:24;;;;;;;2.15;1.33;;;;;;;;;;5080456;28;20060;-74
2021/12/23 04:37:50;;;;;;;4.38;2.17;;;;;;;;;;5078316;28;20031;-75
2021/12/23 04:40:17;;;;;;;2.85;2.25;;;;;;;;;;5061682;28;20037;-75
2021/12/23 04:42:43;;;;;;;2.70;1.75;;;;;;;;;;5066095;28;20029;-75
2021/12/23 04:45:09;;;;;;;3.33;1.98;;;;;;;;;;5064919;28;20436;-75
2021/12/23 04:47:37;;;;;;;2.58;1.95;;;;;;;;;;5062995;28;20047;-75
2021/12/23 04:50:04;;;;;;;3.35;2.10;;;;;;;;;;5071669;28;20168;-75
2021/12/23 04:52:30;;;;;;;2.30;1.80;;;;;;;;;;5070165;28;20027;-75
2021/12/23 04:54:57;;;;;;;2.92;2.03;;;;;;;;;;5063537;28;20116;-75
2021/12/23 04:57:23;;;;;;;3.30;2.33;;;;;;;;;;5069024;28;20036;-75
2021/12/23 04:59:49;;;;;;;2.45;1.75;;;;;;;;;;5076828;28;20131;-76
2021/12/23 05:02:15;;;;;;;2.63;2.05;;;;;;;;;;5067169;28;20113;-75
2021/12/23 05:04:41;;;;;;;2.55;1.98;;;;;;;;;;5062644;28;20085;-75
2021/12/23 05:07:08;;;;;;;2.65;1.60;;;;;;;;;;5064128;28;20032;-75
2021/12/23 05:09:34;;;;;;;4.25;1.80;;;;;;;;;;5064079;28;20028;-75
2021/12/23 05:12:00;;;;;;;5.00;2.15;;;;;;;;;;5064717;28;20365;-74
2021/12/23 05:14:26;;;;;;;4.80;2.10;;;;;;;;;;5066450;28;20396;-75
2021/12/23 05:16:52;;;;;;;2.75;1.83;;;;;;;;;;5063391;28;20101;-75
2021/12/23 05:19:19;;;;;;;3.80;1.60;;;;;;;;;;5069950;28;20039;-75
2021/12/23 05:21:45;;;;;;;3.03;2.05;;;;;;;;;;5066498;28;20027;-75
2021/12/23 05:24:11;;;;;;;2.67;1.58;;;;;;;;;;5067150;28;20032;-75
2021/12/23 05:26:37;;;;;;;2.35;1.55;;;;;;;;;;5072309;28;20027;-74
2021/12/23 05:29:03;;;;;;;3.95;2.05;;;;;;;;;;5068763;28;20032;-75
2021/12/23 05:31:29;;;;;;;2.00;1.60;;;;;;;;;;5068877;28;20212;-75
2021/12/23 05:33:55;;;;;;;4.70;1.60;;;;;;;;;;5063158;28;20613;-75
2021/12/23 05:36:22;;;;;;;1.75;1.45;;;;;;;;;;5061141;28;20040;-75
2021/12/23 05:38:48;;;;;;;2.63;1.70;;;;;;;;;;5075574;28;20081;-74
2021/12/23 05:41:14;;;;;;;2.40;1.30;;;;;;;;;;5072713;28;20036;-75
2021/12/23 05:43:40;;;;;;;2.25;1.20;;;;;;;;;;5072627;28;20024;-74
2021/12/23 05:46:06;;;;;;;3.17;1.52;;;;;;;;;;5072807;28;20534;-75
2021/12/23 05:48:32;;;;;;;2.15;1.30;;;;;;;;;;5065688;28;20036;-75
2021/12/23 05:50:58;;;;;;;2.30;1.58;;;;;;;;;;5064528;28;20770;-75
2021/12/23 05:53:25;;;;;;;3.53;1.77;;;;;;;;;;5071987;28;20407;-75
2021/12/23 05:55:53;;;;;;;2.03;1.23;;;;;;;;;;5080432;28;20036;-75
2021/12/23 05:58:19;;;;;;;2.40;1.20;;;;;;;;;;5074045;28;20050;-74
2021/12/23 06:00:45;;;;;;;3.50;1.48;;;;;;;;;;5070420;28;20606;-74
2021/12/23 06:03:11;;;;;;;2.22;1.50;;;;;;;;;;5070273;28;20510;-75
2021/12/23 06:05:38;;;;;;;3.08;1.52;;;;;;;;;;5070459;28;20027;-75
2021/12/23 06:08:04;;;;;;;2.05;1.45;;;;;;;;;;5069633;28;20055;-75
2021/12/23 06:10:30;;;;;;;3.72;1.30;;;;;;;;;;5072243;28;20039;-75
2021/12/23 06:12:56;;;;;;;2.30;1.52;;;;;;;;;;5071684;28;20019;-75
2021/12/23 06:15:23;;;;;;;3.88;1.45;;;;;;;;;;5067808;28;20485;-75
2021/12/23 06:17:49;;;;;;;1.90;1.20;;;;;;;;;;5063425;28;20800;-75
2021/12/23 06:20:15;;;;;;;3.33;1.40;;;;;;;;;;5070756;28;20062;-75
2021/12/23 06:22:42;;;;;;;2.58;1.60;;;;;;;;;;5077255;28;20472;-75
2021/12/23 06:25:09;;;;;;;3.10;1.30;;;;;;;;;;5063970;28;20035;-75
2021/12/23 06:27:35;;;;;;;2.55;1.38;;;;;;;;;;5068899;28;20024;-75
2021/12/23 06:30:01;;;;;;;2.70;1.40;;;;;;;;;;5070716;28;20047;-75
2021/12/23 06:32:28;;;;;;;3.17;1.48;;;;;;;;;;5070607;28;20031;-76
2021/12/23 06:34:54;;;;;;;2.20;1.35;;;;;;;;;;5065073;28;20059;-75
2021/12/23 06:37:20;;;;;;;2.05;1.42;;;;;;;;;;5068280;28;20029;-75
2021/12/23 06:39:47;;;;;;;4.57;1.85;;;;;;;;;;5075356;28;20036;-74
2021/12/23 06:42:13;;;;;;;2.47;1.70;;;;;;;;;;5066723;28;20103;-75
2021/12/23 06:44:39;;;;;;;2.92;1.77;;;;;;;;;;5077612;28;20036;-74
2021/12/23 06:47:05;;;;;;;4.50;1.50;;;;;;;;;;5062238;28;20037;-74
2021/12/23 06:49:33;;;;;;;2.42;1.80;;;;;;;;;;5069977;28;20025;-75
2021/12/23 06:52:00;;;;;;;2.70;1.70;;;;;;;;;;5071840;28;20518;-78
2021/12/23 06:54:26;;;;;;;6.22;2.20;;;;;;;;;;5075857;28;20126;-74
2021/12/23 06:56:52;;;;;;;3.97;2.00;;;;;;;;;;5072869;28;20100;-75
2021/12/23 06:59:18;;;;;;;2.45;1.90;;;;;;;;;;5068184;28;20089;-72
2021/12/23 07:01:48;;;;;;;4.65;2.17;;;;;;;;;;5066238;28;20054;-73
2021/12/23 07:04:17;;;;;;;2.63;1.80;;;;;;;;;;5071667;28;20514;-73
2021/12/23 07:06:55;;;;;;;3.72;2.20;;;;;;;;;;5072806;28;20036;-72
2021/12/23 07:09:21;;;;;;;3.38;2.10;;;;;;;;;;5072563;28;20028;-74
2021/12/23 07:11:48;;;;;;;4.50;2.38;;;;;;;;;;5068430;28;20042;-73
2021/12/23 07:14:14;;;;;;;2.75;1.80;;;;;;;;;;5063772;28;20115;-73
2021/12/23 07:16:41;;;;;;;2.58;2.03;;;;;;;;;;5071508;28;20036;-73
2021/12/23 07:19:08;;;;;;;3.75;2.30;;;;;;;;;;5070585;28;20032;-73
2021/12/23 07:21:34;;;;;;;4.80;2.30;;;;;;;;;;5068013;28;20763;-73
2021/12/23 07:24:00;;;;;;;7.28;2.08;;;;;;;;;;5066287;28;20028;-73
2021/12/23 07:26:27;;;;;;;2.63;1.90;;;;;;;;;;5065669;28;20399;-73
2021/12/23 07:28:53;;;;;;;2.92;2.15;;;;;;;;;;5067835;28;20062;-73
2021/12/23 07:31:19;;;;;;;4.07;2.17;;;;;;;;;;5065936;28;20032;-73
2021/12/23 07:33:45;;;;;;;6.50;2.08;;;;;;;;;;5067240;28;20028;-73
2021/12/23 07:36:11;;;;;;;2.83;2.10;;;;;;;;;;5071911;28;20659;-73
2021/12/23 07:38:38;;;;;;;3.20;2.25;;;;;;;;;;5076456;28;20161;-73
2021/12/23 07:41:04;;;;;;;5.45;2.50;;;;;;;;;;5069250;28;20111;-73
2021/12/23 07:46:02;;;;;;;;;;;;;;;;;;5067065;28;20655;-72
2021/12/23 07:48:28;;;;;;;3.45;2.75;;;;;;;;;;5077102;28;20002;-72
2021/12/23 07:50:55;;;;;;;4.97;3.05;;;;;;;;;;5064182;28;20085;-73
2021/12/23 07:53:21;;;;;;;4.82;3.00;;;;;;;;;;5070811;28;20025;-73
2021/12/23 07:55:47;;;;;;;10.10;3.72;;;;;;;;;;5079912;28;20050;-73
2021/12/23 07:58:13;;;;;;;5.78;4.35;;;;;;;;;;5069416;28;20028;-73
2021/12/23 08:00:40;;;;;;;10.30;6.65;;;;;;;;;;5071032;28;20028;-74
2021/12/23 08:03:06;;;;;;;26.17;16.48;;;;;;;;;;5068473;28;20048;-74
2021/12/23 08:05:33;;;;;;;40.42;26.45;;;;;;;;;;5065497;28;20747;-74
2021/12/23 08:08:00;;;;;;;55.47;31.77;;;;;;;;;;5069043;28;20020;-74
2021/12/23 08:10:26;;;;;;;36.97;23.52;;;;;;;;;;5073134;28;20498;-76
2021/12/23 08:12:52;;;;;;;41.63;24.38;;;;;;;;;;5068670;28;20036;-74
2021/12/23 08:15:19;;;;;;;37.85;23.75;;;;;;;;;;5072002;28;20399;-73
2021/12/23 08:17:45;;;;;;;23.73;16.17;;;;;;;;;;5071364;28;20024;-74
2021/12/23 08:20:13;;;;;;;24.13;16.38;;;;;;;;;;5065042;28;20039;-74
2021/12/23 08:22:39;;;;;;;47.65;31.95;;;;;;;;;;5071129;28;20415;-74
2021/12/23 08:25:06;;;;;;;47.55;32.88;;;;;;;;;;5067084;28;20073;-77
2021/12/23 08:27:34;;;;;;;44.08;28.55;;;;;;;;;;5064640;28;20419;-74
2021/12/23 08:30:01;;;;;;;18.65;11.65;;;;;;;;;;5072929;28;20029;-75
2021/12/23 08:32:27;;;;;;;11.88;7.55;;;;;;;;;;5070532;28;20536;-74
2021/12/23 08:34:53;;;;;;;11.73;7.25;;;;;;;;;;5066794;28;20036;-74
2021/12/23 08:37:19;;;;;;;12.25;9.30;;;;;;;;;;5065467;28;20025;-75
2021/12/23 08:39:50;;;;;;;17.75;11.40;;;;;;;;;;5070279;28;20038;-76
2021/12/23 08:42:16;;;;;;;14.82;9.75;;;;;;;;;;5069885;28;20031;-75
2021/12/23 08:44:42;;;;;;;19.88;10.15;;;;;;;;;;5067813;28;20101;-76
2021/12/23 08:47:09;;;;;;;19.48;13.18;;;;;;;;;;5068677;28;20523;-75
2021/12/23 08:49:36;;;;;;;20.33;13.43;;;;;;;;;;5077552;28;20123;-75
2021/12/23 08:52:02;;;;;;;17.33;12.70;;;;;;;;;;5070704;28;20028;-75
2021/12/23 08:54:29;;;;;;;19.63;12.35;;;;;;;;;;5072012;28;20092;-78
2021/12/23 08:56:55;;;;;;;22.65;13.38;;;;;;;;;;5073432;28;20697;-74
2021/12/23 08:59:21;;;;;;;19.38;14.07;;;;;;;;;;5070369;28;20032;-75
2021/12/23 09:01:47;;;;;;;22.17;14.15;;;;;;;;;;5061044;28;20500;-75
2021/12/23 09:04:14;;;;;;;18.92;10.73;;;;;;;;;;5069034;28;20033;-75
2021/12/23 09:06:40;;;;;;;15.63;9.82;;;;;;;;;;5070882;28;20033;-74
2021/12/23 09:09:07;;;;;;;8.73;7.75;;;;;;;;;;5085665;28;20504;-79
2021/12/23 09:11:34;;;;;;;13.77;10.23;;;;;;;;;;5073950;28;20024;-78
2021/12/23 09:14:00;;;;;;;13.48;10.27;;;;;;;;;;5075873;28;20070;-75
2021/12/23 09:16:26;;;;;;;17.90;13.32;;;;;;;;;;5075578;28;20040;-75
2021/12/23 09:18:53;;;;;;;11.20;5.82;;;;;;;;;;5068781;28;20100;-75
2021/12/23 09:21:19;;;;;;;8.63;5.35;;;;;;;;;;5084892;28;20024;-76
2021/12/23 09:23:45;;;;;;;11.02;5.05;;;;;;;;;;5070132;28;20032;-75
2021/12/23 09:26:12;;;;;;;7.97;3.78;;;;;;;;;;5075425;28;20087;-75
2021/12/23 09:34:02;;;;;;;7.78;5.80;;;;;;;;;;5076669;28;20095;-75
2021/12/23 09:36:28;;;;;;;8.50;5.47;;;;;;;;;;5076508;28;20028;-76
2021/12/23 09:38:54;;;;;;;13.93;5.93;;;;;;;;;;5070551;28;20020;-76
2021/12/23 09:41:21;;;;;;;9.27;6.20;;;;;;;;;;5075014;28;20028;-75
2021/12/23 09:43:48;;;;;;;12.05;8.98;;;;;;;;;;5070393;28;20036;-74
2021/12/23 09:46:16;;;;;;;17.80;9.98;;;;;;;;;;5071929;28;20031;-75
2021/12/23 09:48:44;;;;;;;12.40;8.32;;;;;;;;;;5073930;28;20020;-75
2021/12/23 09:51:11;;;;;;;12.77;6.75;;;;;;;;;;5079491;28;20031;-75
2021/12/23 09:53:40;;;;;;;12.52;6.75;;;;;;;;;;5080827;28;20021;-75
2021/12/23 09:56:07;;;;;;;11.20;9.40;;;;;;;;;;5071031;28;20032;-75
2021/12/23 09:58:33;;;;;;;12.48;9.27;;;;;;;;;;5066376;28;20030;-76
2021/12/23 10:01:00;;;;;;;14.15;11.70;;;;;;;;;;5074409;28;20024;-74
2021/12/23 10:03:26;;;;;;;15.00;11.70;;;;;;;;;;5073312;28;20025;-78
2021/12/23 10:05:53;;;;;;;13.35;10.02;;;;;;;;;;5069560;28;20036;-78
2021/12/23 10:08:20;;;;;;;14.13;10.05;;;;;;;;;;5071631;28;20119;-78
2021/12/23 10:10:55;;;;;;;11.85;9.77;;;;;;;;;;5080029;28;20503;-75
2021/12/23 10:28:48;;;;;;;11.50;8.77;;;;;;;;;;5068051;28;20068;-80
2021/12/23 10:38:19;;;;;;;10.25;7.50;;;;;;;;;;5071035;28;20470;-75
2021/12/23 10:40:47;;;;;;;9.55;7.20;;;;;;;;;;5073684;28;20500;-75
2021/12/23 10:43:33;;;;;;;8.63;7.72;;;;;;;;;;5066807;28;20112;-74
2021/12/23 10:46:23;;;;;;;9.90;7.22;;;;;;;;;;5070755;28;20578;-74
2021/12/23 10:49:18;;;;;;;9.82;7.78;;;;;;;;;;5067725;28;20821;-76
2021/12/23 10:52:09;;;;;;;8.52;7.18;;;;;;;;;;5065100;28;20112;-77
2021/12/23 11:00:15;;;;;;;10.10;7.82;;;;;;;;;;5084542;28;20392;-78
2021/12/23 11:02:56;;;;;;;10.18;7.78;;;;;;;;;;5078249;28;20044;-76
2021/12/23 11:05:27;;;;;;;9.98;6.90;;;;;;;;;;5068943;28;20021;-79
2021/12/23 11:08:08;;;;;;;10.75;7.50;;;;;;;;;;5073714;28;20042;-76
2021/12/23 11:37:55;;;;;;;8.13;5.78;;;;;;;;;;5071426;28;20137;-74
2021/12/23 11:45:33;;;;;;;13.77;7.43;;;;;;;;;;5064536;28;20045;-75
2021/12/23 11:48:02;;;;;;;13.88;7.63;;;;;;;;;;5075038;28;20085;-72
2021/12/23 11:50:41;;;;;;;12.57;10.15;;;;;;;;;;5065832;28;20033;-74
2021/12/23 11:53:07;;;;;;;12.25;7.40;;;;;;;;;;5075478;28;20043;-74
2021/12/23 11:55:33;;;;;;;10.82;7.00;;;;;;;;;;5067895;28;20039;-74
2021/12/23 11:58:00;;;;;;;7.97;5.60;;;;;;;;;;5069310;28;20233;-74
2021/12/23 12:00:41;;;;;;;7.47;5.72;;;;;;;;;;5079184;28;20089;-75
2021/12/23 12:03:08;;;;;;;9.07;5.53;;;;;;;;;;5062950;28;20024;-78
2021/12/23 12:05:35;;;;;;;8.15;5.60;;;;;;;;;;5074812;28;20027;-74
2021/12/23 12:08:06;;;;;;;8.90;6.68;;;;;;;;;;5065550;28;20492;-74
2021/12/23 12:10:33;;;;;;;8.48;5.90;;;;;;;;;;5076376;28;20028;-74
2021/12/23 12:13:10;;;;;;;9.40;5.88;;;;;;;;;;5069412;28;20029;-74
2021/12/23 12:15:39;;;;;;;7.32;5.78;;;;;;;;;;5071421;28;20032;-74
2021/12/23 12:18:10;;;;;;;8.25;5.97;;;;;;;;;;5070982;28;20012;-75
2021/12/23 12:20:47;;;;;;;7.57;5.20;;;;;;;;;;5075787;28;20027;-74
2021/12/23 12:23:15;;;;;;;7.47;5.90;;;;;;;;;;5069180;28;20067;-74
2021/12/23 12:25:41;;;;;;;7.85;5.97;;;;;;;;;;5067439;28;20032;-74
2021/12/23 12:28:12;;;;;;;10.98;5.65;;;;;;;;;;5069236;28;20109;-73
2021/12/23 12:30:51;;;;;;;6.97;5.35;;;;;;;;;;5074790;28;20020;-74
2021/12/23 12:33:20;;;;;;;7.15;4.90;;;;;;;;;;5064709;28;20021;-75
2021/12/23 12:36:12;;;;;;;10.07;6.05;;;;;;;;;;5068506;28;20040;-71
2021/12/23 12:38:38;;;;;;;;;;;;;;;;;;5066200;28;20044;-71
2021/12/23 12:41:14;;;;;;;9.05;6.10;;;;;;;;;;5068704;28;19995;-72
2021/12/23 12:43:49;;;;;;;13.18;6.65;;;;;;;;;;5070428;28;20459;-72
2021/12/23 12:46:29;;;;;;;7.53;5.93;;;;;;;;;;5074998;28;20028;-75
2021/12/23 12:48:58;;;;;;;8.93;5.30;;;;;;;;;;5065227;28;20029;-73
2021/12/23 12:51:26;;;;;;;9.20;5.20;;;;;;;;;;5064423;28;20028;-74
2021/12/23 12:54:02;;;;;;;7.75;5.00;;;;;;;;;;5065517;28;20024;-74
2021/12/23 12:56:29;;;;;;;7.53;5.32;;;;;;;;;;5065448;28;20059;-74
2021/12/23 12:58:55;;;;;;;13.10;5.68;;;;;;;;;;5083935;28;20016;-73
2021/12/23 13:01:31;;;;;;;6.53;4.97;;;;;;;;;;5068060;28;20185;-75
2021/12/23 13:03:59;;;;;;;6.72;5.15;;;;;;;;;;5069650;28;20016;-74
2021/12/23 13:06:28;;;;;;;7.72;4.75;;;;;;;;;;5068142;28;20100;-74
2021/12/23 13:09:03;;;;;;;10.07;5.30;;;;;;;;;;5062255;28;20028;-75
2021/12/23 13:11:29;;;;;;;6.53;4.75;;;;;;;;;;5074098;28;20020;-74
2021/12/23 13:14:02;;;;;;;7.22;4.93;;;;;;;;;;5071984;28;20111;-72
2021/12/23 13:16:28;;;;;;;7.55;4.75;;;;;;;;;;5082849;28;20051;-72
2021/12/23 13:19:24;;;;;;;5.15;4.43;;;;;;;;;;5059975;28;20025;-72
2021/12/23 13:21:55;;;;;;;7.43;4.65;;;;;;;;;;5058066;28;20635;-72
2021/12/23 13:24:22;;;;;;;7.30;4.93;;;;;;;;;;5060378;28;20569;-73
2021/12/23 13:26:49;;;;;;;6.68;4.47;;;;;;;;;;5059399;28;20105;-72
2021/12/23 13:29:15;;;;;;;7.68;4.28;;;;;;;;;;5083997;28;20030;-72
2021/12/23 13:31:42;;;;;;;6.90;4.45;;;;;;;;;;5066569;28;20032;-72
2021/12/23 13:34:28;;;;;;;5.97;4.13;;;;;;;;;;5065065;28;20021;-72
2021/12/23 13:36:58;;;;;;;6.40;4.18;;;;;;;;;;5059821;28;20044;-72
2021/12/23 13:39:27;;;;;;;7.30;4.20;;;;;;;;;;5058935;28;20085;-72
2021/12/23 13:41:54;;;;;;;6.95;4.20;;;;;;;;;;5071069;28;20032;-72
2021/12/23 13:44:31;;;;;;;7.60;5.25;;;;;;;;;;5076850;28;20056;-72
2021/12/23 13:47:01;;;;;;;6.88;4.28;;;;;;;;;;5065379;28;20025;-72
2021/12/23 13:49:31;;;;;;;5.47;4.20;;;;;;;;;;5060751;28;20068;-72
2021/12/23 13:51:57;;;;;;;5.93;3.80;;;;;;;;;;5074039;28;20036;-73
2021/12/23 13:54:23;;;;;;;7.93;4.22;;;;;;;;;;5062213;28;20028;-72
2021/12/23 13:56:51;;;;;;;6.60;4.53;;;;;;;;;;5064718;28;20031;-72
2021/12/23 13:59:19;;;;;;;6.40;3.97;;;;;;;;;;5071263;28;20039;-71
2021/12/23 14:02:05;;;;;;;7.60;3.75;;;;;;;;;;5072052;28;20863;-72
2021/12/23 14:04:31;;;;;;;4.70;3.65;;;;;;;;;;5066230;28;20029;-72
2021/12/23 14:06:58;;;;;;;6.95;3.92;;;;;;;;;;5067178;28;20043;-72
2021/12/23 14:09:43;;;;;;;8.10;3.83;;;;;;;;;;5066514;28;20024;-72
2021/12/23 14:12:11;;;;;;;5.40;4.15;;;;;;;;;;5068683;28;20032;-72
2021/12/23 14:14:49;;;;;;;5.93;3.25;;;;;;;;;;5064357;28;20021;-73
2021/12/23 14:17:33;;;;;;;9.27;3.35;;;;;;;;;;5064503;28;20086;-73
2021/12/23 14:23:12;;;;;;;4.97;3.40;;;;;;;;;;5066408;28;20055;-71
2021/12/23 14:25:49;;;;;;;4.72;3.00;;;;;;;;;;5073203;28;20027;-72
2021/12/23 14:28:17;;;;;;;5.15;3.20;;;;;;;;;;5070731;28;20059;-72
2021/12/23 14:30:49;;;;;;;7.25;3.33;;;;;;;;;;5069061;28;20027;-72
2021/12/23 14:33:15;;;;;;;;;;;;;;;;;;5077613;28;20028;-72
2021/12/23 14:35:50;;;;;;;5.38;3.30;;;;;;;;;;5072637;28;20029;-71
2021/12/23 14:38:23;;;;;;;4.93;3.20;;;;;;;;;;5072736;28;20115;-71
2021/12/23 14:41:05;;;;;;;7.03;3.83;;;;;;;;;;5072246;28;20632;-72
2021/12/23 14:43:58;;;;;;;6.10;3.35;;;;;;;;;;5068952;28;20039;-71
2021/12/23 14:46:30;;;;;;;4.47;3.00;;;;;;;;;;5066789;28;20032;-71
2021/12/23 14:51:30;;;;;;;5.72;3.08;;;;;;;;;;5065208;28;20177;-75
2021/12/23 14:54:11;;;;;;;8.93;4.00;;;;;;;;;;5065186;28;20032;-76
2021/12/23 14:56:38;;;;;;;6.07;3.40;;;;;;;;;;5067151;28;20093;-74
2021/12/23 14:59:07;;;;;;;5.75;3.50;;;;;;;;;;5068073;28;20024;-74
2021/12/23 15:01:33;;;;;;;5.32;3.67;;;;;;;;;;5063897;28;20047;-74
2021/12/23 15:04:03;;;;;;;5.28;3.60;;;;;;;;;;5067433;28;20599;-74
2021/12/23 15:06:30;;;;;;;5.93;3.45;;;;;;;;;;5076579;28;20120;-74
2021/12/23 15:08:56;;;;;;;5.53;3.78;;;;;;;;;;5071450;28;20036;-74
2021/12/23 15:11:29;;;;;;;6.30;3.67;;;;;;;;;;5075378;28;20027;-74
2021/12/23 15:13:56;;;;;;;4.25;3.72;;;;;;;;;;5066287;28;20036;-74
2021/12/23 15:16:24;;;;;;;6.18;3.80;;;;;;;;;;5070828;28;20108;-74
2021/12/23 15:19:08;;;;;;;8.75;3.60;;;;;;;;;;5070536;27;20020;-74
2021/12/23 15:21:40;;;;;;;4.65;3.67;;;;;;;;;;5065646;28;20020;-74
2021/12/23 15:24:20;;;;;;;6.75;4.13;;;;;;;;;;5063833;28;20421;-74
2021/12/23 15:26:56;;;;;;;6.68;4.10;;;;;;;;;;5072322;28;20024;-74
2021/12/23 15:29:29;;;;;;;6.93;3.83;;;;;;;;;;5074949;28;20032;-77
2021/12/23 15:31:55;;;;;;;;;;;;;;;;;;5080456;28;20657;-78
2021/12/23 15:34:21;;;;;;;6.72;4.60;;;;;;;;;;5075554;28;20430;-78
2021/12/23 15:36:47;;;;;;;6.32;4.93;;;;;;;;;;5073034;28;20102;-75
2021/12/23 15:39:17;;;;;;;28.15;7.20;;;;;;;;;;5073127;28;20029;-74
2021/12/23 15:41:43;;;;;;;7.30;4.45;;;;;;;;;;5073198;28;21040;-72
2021/12/23 15:44:10;;;;;;;5.38;4.43;;;;;;;;;;5078068;28;20035;-73
2021/12/23 15:46:36;;;;;;;6.80;4.93;;;;;;;;;;5071514;28;20143;-72
2021/12/23 15:49:03;;;;;;;8.82;4.70;;;;;;;;;;5072801;28;20023;-75
2021/12/23 15:51:31;;;;;;;11.63;5.03;;;;;;;;;;5069043;28;20029;-72
2021/12/23 15:53:58;;;;;;;7.22;4.70;;;;;;;;;;5063641;28;20029;-73
2021/12/23 15:56:25;;;;;;;22.10;4.70;;;;;;;;;;5079042;28;20036;-74
2021/12/23 15:58:52;;;;;;;6.70;4.60;;;;;;;;;;5070029;28;20259;-72
2021/12/23 16:01:19;;;;;;;7.50;5.22;;;;;;;;;;5073678;28;20054;-72
2021/12/23 16:03:48;;;;;;;9.77;5.05;;;;;;;;;;5072610;28;20571;-73
2021/12/23 16:09:19;;;;;;;7.20;5.00;;;;;;;;;;5034871;28;20025;-73
2021/12/23 16:11:47;;;;;;;7.55;5.20;;;;;;;;;;5061207;28;20094;-73